sensor_id;sensor_type;location;lat;lon;timestamp;P1;durP1;ratioP1;P2;durP2;ratioP2
20623;SDS011;10471;42.736;23.346;2022-12-10T00:02:07;34.33;;;17.40;;
20623;SDS011;10471;42.736;23.346;2022-12-10T00:04:32;26.27;;;13.10;;
20623;SDS011;10471;42.736;23.346;2022-12-10T00:06:58;18.63;;;9.23;;
20623;SDS011;10471;42.736;23.346;2022-12-10T00:09:23;16.30;;;8.87;;
20623;SDS011;10471;42.736;23.346;2022-12-10T00:11:49;20.63;;;8.90;;
20623;SDS011;10471;42.736;23.346;2022-12-10T00:14:14;17.57;;;8.23;;
20623;SDS011;10471;42.736;23.346;2022-12-10T00:16:40;20.43;;;9.73;;
20623;SDS011;10471;42.736;23.346;2022-12-10T00:19:07;20.00;;;10.87;;
20623;SDS011;10471;42.736;23.346;2022-12-10T00:21:33;34.03;;;13.47;;
20623;SDS011;10471;42.736;23.346;2022-12-10T00:24:00;38.20;;;18.67;;
20623;SDS011;10471;42.736;23.346;2022-12-10T00:26:27;33.20;;;16.73;;
20623;SDS011;10471;42.736;23.346;2022-12-10T00:28:54;36.70;;;17.13;;
20623;SDS011;10471;42.736;23.346;2022-12-10T00:31:23;31.87;;;17.07;;
20623;SDS011;10471;42.736;23.346;2022-12-10T00:33:50;25.37;;;12.43;;
20623;SDS011;10471;42.736;23.346;2022-12-10T00:36:19;27.10;;;11.40;;
20623;SDS011;10471;42.736;23.346;2022-12-10T00:38:50;18.10;;;8.63;;
20623;SDS011;10471;42.736;23.346;2022-12-10T00:41:16;26.40;;;12.33;;
20623;SDS011;10471;42.736;23.346;2022-12-10T00:43:42;26.60;;;12.87;;
20623;SDS011;10471;42.736;23.346;2022-12-10T00:46:08;22.97;;;13.43;;
20623;SDS011;10471;42.736;23.346;2022-12-10T00:48:35;19.37;;;9.97;;
20623;SDS011;10471;42.736;23.346;2022-12-10T00:51:22;22.23;;;11.40;;
20623;SDS011;10471;42.736;23.346;2022-12-10T00:53:48;21.53;;;11.07;;
20623;SDS011;10471;42.736;23.346;2022-12-10T00:56:15;22.77;;;11.23;;
20623;SDS011;10471;42.736;23.346;2022-12-10T00:58:42;20.40;;;10.00;;
20623;SDS011;10471;42.736;23.346;2022-12-10T01:01:10;22.60;;;9.27;;
20623;SDS011;10471;42.736;23.346;2022-12-10T01:03:39;11.43;;;7.67;;
20623;SDS011;10471;42.736;23.346;2022-12-10T01:06:10;20.70;;;7.77;;
20623;SDS011;10471;42.736;23.346;2022-12-10T01:08:37;17.70;;;7.70;;
20623;SDS011;10471;42.736;23.346;2022-12-10T01:11:03;19.30;;;8.23;;
20623;SDS011;10471;42.736;23.346;2022-12-10T01:13:29;19.87;;;9.73;;
20623;SDS011;10471;42.736;23.346;2022-12-10T01:15:54;18.77;;;9.60;;
20623;SDS011;10471;42.736;23.346;2022-12-10T01:18:19;14.60;;;7.23;;
20623;SDS011;10471;42.736;23.346;2022-12-10T01:20:45;19.47;;;7.87;;
20623;SDS011;10471;42.736;23.346;2022-12-10T01:23:10;18.20;;;7.30;;
20623;SDS011;10471;42.736;23.346;2022-12-10T01:25:35;14.67;;;7.17;;
20623;SDS011;10471;42.736;23.346;2022-12-10T01:28:01;16.37;;;6.83;;
20623;SDS011;10471;42.736;23.346;2022-12-10T01:30:26;17.40;;;6.97;;
20623;SDS011;10471;42.736;23.346;2022-12-10T01:32:51;19.63;;;7.50;;
20623;SDS011;10471;42.736;23.346;2022-12-10T01:35:17;19.23;;;7.80;;
20623;SDS011;10471;42.736;23.346;2022-12-10T01:37:42;17.90;;;7.90;;
20623;SDS011;10471;42.736;23.346;2022-12-10T01:40:08;17.27;;;7.17;;
20623;SDS011;10471;42.736;23.346;2022-12-10T01:42:34;18.60;;;7.30;;
20623;SDS011;10471;42.736;23.346;2022-12-10T01:45:01;22.53;;;8.93;;
20623;SDS011;10471;42.736;23.346;2022-12-10T01:47:33;26.13;;;12.70;;
20623;SDS011;10471;42.736;23.346;2022-12-10T01:49:59;25.47;;;9.40;;
20623;SDS011;10471;42.736;23.346;2022-12-10T01:52:25;27.63;;;11.23;;
20623;SDS011;10471;42.736;23.346;2022-12-10T01:54:51;21.53;;;11.70;;
20623;SDS011;10471;42.736;23.346;2022-12-10T01:57:21;202.03;;;127.10;;
20623;SDS011;10471;42.736;23.346;2022-12-10T01:59:52;32.53;;;16.00;;
20623;SDS011;10471;42.736;23.346;2022-12-10T02:13:11;33.53;;;16.43;;
20623;SDS011;10471;42.736;23.346;2022-12-10T02:16:23;30.37;;;15.23;;
20623;SDS011;10471;42.736;23.346;2022-12-10T02:18:58;32.10;;;15.67;;
20623;SDS011;10471;42.736;23.346;2022-12-10T02:21:35;31.73;;;15.43;;
20623;SDS011;10471;42.736;23.346;2022-12-10T02:24:05;30.67;;;16.20;;
20623;SDS011;10471;42.736;23.346;2022-12-10T02:26:46;30.03;;;15.47;;
20623;SDS011;10471;42.736;23.346;2022-12-10T02:29:24;23.80;;;12.90;;
20623;SDS011;10471;42.736;23.346;2022-12-10T02:32:02;34.77;;;15.10;;
20623;SDS011;10471;42.736;23.346;2022-12-10T02:34:33;27.03;;;14.53;;
20623;SDS011;10471;42.736;23.346;2022-12-10T02:37:04;28.70;;;13.97;;
20623;SDS011;10471;42.736;23.346;2022-12-10T02:39:38;23.90;;;13.13;;
20623;SDS011;10471;42.736;23.346;2022-12-10T02:42:08;28.43;;;16.13;;
20623;SDS011;10471;42.736;23.346;2022-12-10T02:44:35;23.77;;;13.00;;
20623;SDS011;10471;42.736;23.346;2022-12-10T02:47:03;30.43;;;15.53;;
20623;SDS011;10471;42.736;23.346;2022-12-10T02:49:30;31.73;;;16.87;;
20623;SDS011;10471;42.736;23.346;2022-12-10T02:51:56;29.93;;;14.73;;
20623;SDS011;10471;42.736;23.346;2022-12-10T02:54:38;30.83;;;13.90;;
20623;SDS011;10471;42.736;23.346;2022-12-10T03:00:17;36.00;;;20.87;;
20623;SDS011;10471;42.736;23.346;2022-12-10T03:05:23;47.97;;;28.00;;
20623;SDS011;10471;42.736;23.346;2022-12-10T03:16:22;36.87;;;19.60;;
20623;SDS011;10471;42.736;23.346;2022-12-10T03:18:50;37.10;;;21.00;;
20623;SDS011;10471;42.736;23.346;2022-12-10T03:21:20;38.30;;;22.00;;
20623;SDS011;10471;42.736;23.346;2022-12-10T03:23:46;29.27;;;20.83;;
20623;SDS011;10471;42.736;23.346;2022-12-10T03:26:14;33.87;;;20.67;;
20623;SDS011;10471;42.736;23.346;2022-12-10T03:28:42;35.13;;;21.27;;
20623;SDS011;10471;42.736;23.346;2022-12-10T03:31:13;26.60;;;15.70;;
20623;SDS011;10471;42.736;23.346;2022-12-10T03:33:40;28.87;;;15.70;;
20623;SDS011;10471;42.736;23.346;2022-12-10T03:36:06;31.30;;;19.43;;
20623;SDS011;10471;42.736;23.346;2022-12-10T03:38:33;36.77;;;19.97;;
20623;SDS011;10471;42.736;23.346;2022-12-10T03:40:59;27.13;;;15.93;;
20623;SDS011;10471;42.736;23.346;2022-12-10T03:43:25;25.77;;;15.47;;
20623;SDS011;10471;42.736;23.346;2022-12-10T03:45:50;26.43;;;14.90;;
20623;SDS011;10471;42.736;23.346;2022-12-10T03:48:15;29.70;;;15.10;;
20623;SDS011;10471;42.736;23.346;2022-12-10T03:50:41;28.73;;;15.93;;
20623;SDS011;10471;42.736;23.346;2022-12-10T03:53:06;30.00;;;16.43;;
20623;SDS011;10471;42.736;23.346;2022-12-10T03:55:31;29.00;;;15.60;;
20623;SDS011;10471;42.736;23.346;2022-12-10T03:57:58;30.20;;;16.23;;
20623;SDS011;10471;42.736;23.346;2022-12-10T04:00:23;28.70;;;18.33;;
20623;SDS011;10471;42.736;23.346;2022-12-10T04:02:48;29.40;;;16.90;;
20623;SDS011;10471;42.736;23.346;2022-12-10T04:05:14;32.83;;;16.40;;
20623;SDS011;10471;42.736;23.346;2022-12-10T04:07:39;32.17;;;16.23;;
20623;SDS011;10471;42.736;23.346;2022-12-10T04:10:05;30.77;;;16.20;;
20623;SDS011;10471;42.736;23.346;2022-12-10T04:12:30;27.53;;;14.90;;
20623;SDS011;10471;42.736;23.346;2022-12-10T04:14:56;28.23;;;15.50;;
20623;SDS011;10471;42.736;23.346;2022-12-10T04:17:39;27.93;;;15.03;;
20623;SDS011;10471;42.736;23.346;2022-12-10T04:20:05;23.90;;;14.80;;
20623;SDS011;10471;42.736;23.346;2022-12-10T04:22:51;29.60;;;14.37;;
20623;SDS011;10471;42.736;23.346;2022-12-10T04:25:35;29.50;;;15.03;;
20623;SDS011;10471;42.736;23.346;2022-12-10T04:28:18;22.90;;;14.07;;
20623;SDS011;10471;42.736;23.346;2022-12-10T04:30:44;23.60;;;14.73;;
20623;SDS011;10471;42.736;23.346;2022-12-10T04:33:09;26.50;;;14.67;;
20623;SDS011;10471;42.736;23.346;2022-12-10T04:35:34;24.87;;;13.03;;
20623;SDS011;10471;42.736;23.346;2022-12-10T04:38:00;29.77;;;15.07;;
20623;SDS011;10471;42.736;23.346;2022-12-10T04:40:25;36.67;;;16.33;;
20623;SDS011;10471;42.736;23.346;2022-12-10T04:42:50;49.97;;;27.50;;
20623;SDS011;10471;42.736;23.346;2022-12-10T04:45:16;43.80;;;25.53;;
20623;SDS011;10471;42.736;23.346;2022-12-10T04:47:41;40.10;;;22.63;;
20623;SDS011;10471;42.736;23.346;2022-12-10T04:50:07;46.13;;;24.73;;
20623;SDS011;10471;42.736;23.346;2022-12-10T04:52:32;36.57;;;21.00;;
20623;SDS011;10471;42.736;23.346;2022-12-10T04:54:58;34.27;;;19.43;;
20623;SDS011;10471;42.736;23.346;2022-12-10T04:57:23;30.43;;;14.90;;
20623;SDS011;10471;42.736;23.346;2022-12-10T04:59:48;25.07;;;13.70;;
20623;SDS011;10471;42.736;23.346;2022-12-10T05:02:14;27.37;;;15.23;;
20623;SDS011;10471;42.736;23.346;2022-12-10T05:04:39;36.33;;;21.27;;
20623;SDS011;10471;42.736;23.346;2022-12-10T05:07:05;29.33;;;17.33;;
20623;SDS011;10471;42.736;23.346;2022-12-10T05:09:30;54.27;;;28.90;;
20623;SDS011;10471;42.736;23.346;2022-12-10T05:11:56;29.77;;;16.37;;
20623;SDS011;10471;42.736;23.346;2022-12-10T05:14:21;35.00;;;20.40;;
20623;SDS011;10471;42.736;23.346;2022-12-10T05:16:48;29.53;;;16.20;;
20623;SDS011;10471;42.736;23.346;2022-12-10T05:19:15;26.13;;;14.93;;
20623;SDS011;10471;42.736;23.346;2022-12-10T05:21:41;25.73;;;13.53;;
20623;SDS011;10471;42.736;23.346;2022-12-10T05:24:24;25.57;;;13.90;;
20623;SDS011;10471;42.736;23.346;2022-12-10T05:26:50;25.17;;;14.23;;
20623;SDS011;10471;42.736;23.346;2022-12-10T05:29:16;33.20;;;17.83;;
20623;SDS011;10471;42.736;23.346;2022-12-10T05:31:42;44.33;;;25.97;;
20623;SDS011;10471;42.736;23.346;2022-12-10T05:34:08;44.87;;;23.00;;
20623;SDS011;10471;42.736;23.346;2022-12-10T05:36:36;37.00;;;20.33;;
20623;SDS011;10471;42.736;23.346;2022-12-10T05:39:02;37.77;;;20.67;;
20623;SDS011;10471;42.736;23.346;2022-12-10T05:41:29;29.93;;;16.37;;
20623;SDS011;10471;42.736;23.346;2022-12-10T05:43:56;26.03;;;15.33;;
20623;SDS011;10471;42.736;23.346;2022-12-10T05:46:24;34.47;;;17.40;;
20623;SDS011;10471;42.736;23.346;2022-12-10T05:48:51;32.50;;;18.70;;
20623;SDS011;10471;42.736;23.346;2022-12-10T05:51:18;28.33;;;18.00;;
20623;SDS011;10471;42.736;23.346;2022-12-10T05:53:45;61.87;;;39.90;;
20623;SDS011;10471;42.736;23.346;2022-12-10T05:56:12;46.73;;;24.07;;
20623;SDS011;10471;42.736;23.346;2022-12-10T05:58:43;54.43;;;31.80;;
20623;SDS011;10471;42.736;23.346;2022-12-10T06:01:12;85.63;;;49.97;;
20623;SDS011;10471;42.736;23.346;2022-12-10T06:03:39;53.90;;;30.47;;
20623;SDS011;10471;42.736;23.346;2022-12-10T06:06:05;79.33;;;48.80;;
20623;SDS011;10471;42.736;23.346;2022-12-10T06:08:31;77.97;;;46.37;;
20623;SDS011;10471;42.736;23.346;2022-12-10T06:11:02;77.97;;;48.97;;
20623;SDS011;10471;42.736;23.346;2022-12-10T06:13:32;63.97;;;42.43;;
20623;SDS011;10471;42.736;23.346;2022-12-10T06:15:57;54.37;;;37.13;;
20623;SDS011;10471;42.736;23.346;2022-12-10T06:18:23;62.03;;;37.80;;
20623;SDS011;10471;42.736;23.346;2022-12-10T06:20:49;63.83;;;40.27;;
20623;SDS011;10471;42.736;23.346;2022-12-10T06:23:14;92.67;;;57.27;;
20623;SDS011;10471;42.736;23.346;2022-12-10T06:25:40;96.43;;;60.97;;
20623;SDS011;10471;42.736;23.346;2022-12-10T06:28:06;136.10;;;83.50;;
20623;SDS011;10471;42.736;23.346;2022-12-10T06:30:31;136.87;;;79.00;;
20623;SDS011;10471;42.736;23.346;2022-12-10T06:32:57;113.70;;;64.50;;
20623;SDS011;10471;42.736;23.346;2022-12-10T06:35:22;95.53;;;57.47;;
20623;SDS011;10471;42.736;23.346;2022-12-10T06:37:48;101.53;;;60.37;;
20623;SDS011;10471;42.736;23.346;2022-12-10T06:40:14;95.20;;;58.13;;
20623;SDS011;10471;42.736;23.346;2022-12-10T06:42:40;101.10;;;56.40;;
20623;SDS011;10471;42.736;23.346;2022-12-10T06:45:05;116.93;;;61.93;;
20623;SDS011;10471;42.736;23.346;2022-12-10T06:47:31;110.90;;;64.57;;
20623;SDS011;10471;42.736;23.346;2022-12-10T06:49:57;107.83;;;59.80;;
20623;SDS011;10471;42.736;23.346;2022-12-10T06:52:22;95.37;;;56.30;;
20623;SDS011;10471;42.736;23.346;2022-12-10T06:54:47;93.67;;;47.20;;
20623;SDS011;10471;42.736;23.346;2022-12-10T06:57:13;116.53;;;59.87;;
20623;SDS011;10471;42.736;23.346;2022-12-10T06:59:38;93.97;;;44.57;;
20623;SDS011;10471;42.736;23.346;2022-12-10T07:02:04;72.00;;;39.37;;
20623;SDS011;10471;42.736;23.346;2022-12-10T07:04:30;69.27;;;36.20;;
20623;SDS011;10471;42.736;23.346;2022-12-10T07:06:55;51.60;;;27.17;;
20623;SDS011;10471;42.736;23.346;2022-12-10T07:09:21;59.90;;;31.47;;
20623;SDS011;10471;42.736;23.346;2022-12-10T07:11:46;71.90;;;35.93;;
20623;SDS011;10471;42.736;23.346;2022-12-10T07:14:15;67.93;;;35.80;;
20623;SDS011;10471;42.736;23.346;2022-12-10T07:16:41;72.57;;;38.40;;
20623;SDS011;10471;42.736;23.346;2022-12-10T07:19:08;51.23;;;28.97;;
20623;SDS011;10471;42.736;23.346;2022-12-10T07:21:35;55.30;;;32.07;;
20623;SDS011;10471;42.736;23.346;2022-12-10T07:24:06;52.30;;;30.37;;
20623;SDS011;10471;42.736;23.346;2022-12-10T07:26:35;49.03;;;29.97;;
20623;SDS011;10471;42.736;23.346;2022-12-10T07:29:03;49.67;;;30.17;;
20623;SDS011;10471;42.736;23.346;2022-12-10T07:31:29;47.13;;;27.87;;
20623;SDS011;10471;42.736;23.346;2022-12-10T07:33:56;42.00;;;25.60;;
20623;SDS011;10471;42.736;23.346;2022-12-10T07:36:23;41.20;;;26.07;;
20623;SDS011;10471;42.736;23.346;2022-12-10T07:38:50;35.13;;;20.47;;
20623;SDS011;10471;42.736;23.346;2022-12-10T07:41:16;36.67;;;21.97;;
20623;SDS011;10471;42.736;23.346;2022-12-10T07:43:42;37.90;;;22.80;;
20623;SDS011;10471;42.736;23.346;2022-12-10T07:48:37;55.53;;;33.60;;
20623;SDS011;10471;42.736;23.346;2022-12-10T07:51:03;54.13;;;29.80;;
20623;SDS011;10471;42.736;23.346;2022-12-10T07:53:29;70.47;;;38.00;;
20623;SDS011;10471;42.736;23.346;2022-12-10T07:55:55;57.93;;;31.67;;
20623;SDS011;10471;42.736;23.346;2022-12-10T07:58:20;33.73;;;21.13;;
20623;SDS011;10471;42.736;23.346;2022-12-10T08:00:46;30.73;;;17.73;;
20623;SDS011;10471;42.736;23.346;2022-12-10T08:03:11;24.33;;;13.30;;
20623;SDS011;10471;42.736;23.346;2022-12-10T08:05:37;25.40;;;12.10;;
20623;SDS011;10471;42.736;23.346;2022-12-10T08:08:02;20.97;;;11.67;;
20623;SDS011;10471;42.736;23.346;2022-12-10T08:10:28;17.03;;;10.47;;
20623;SDS011;10471;42.736;23.346;2022-12-10T08:12:53;27.07;;;11.80;;
20623;SDS011;10471;42.736;23.346;2022-12-10T08:15:19;19.60;;;10.13;;
20623;SDS011;10471;42.736;23.346;2022-12-10T08:17:44;23.43;;;14.53;;
20623;SDS011;10471;42.736;23.346;2022-12-10T08:20:09;14.70;;;9.87;;
20623;SDS011;10471;42.736;23.346;2022-12-10T08:22:35;14.00;;;8.50;;
20623;SDS011;10471;42.736;23.346;2022-12-10T08:25:01;17.73;;;9.67;;
20623;SDS011;10471;42.736;23.346;2022-12-10T08:27:27;14.73;;;8.37;;
20623;SDS011;10471;42.736;23.346;2022-12-10T08:29:52;15.53;;;8.73;;
20623;SDS011;10471;42.736;23.346;2022-12-10T08:32:18;15.33;;;9.07;;
20623;SDS011;10471;42.736;23.346;2022-12-10T08:34:44;17.70;;;9.53;;
20623;SDS011;10471;42.736;23.346;2022-12-10T08:37:09;15.17;;;9.13;;
20623;SDS011;10471;42.736;23.346;2022-12-10T08:39:35;14.10;;;8.30;;
20623;SDS011;10471;42.736;23.346;2022-12-10T08:42:00;18.13;;;8.73;;
20623;SDS011;10471;42.736;23.346;2022-12-10T08:44:25;13.83;;;7.83;;
20623;SDS011;10471;42.736;23.346;2022-12-10T08:46:51;16.83;;;8.60;;
20623;SDS011;10471;42.736;23.346;2022-12-10T08:49:16;17.40;;;8.50;;
20623;SDS011;10471;42.736;23.346;2022-12-10T08:51:41;17.13;;;9.33;;
20623;SDS011;10471;42.736;23.346;2022-12-10T08:54:07;14.90;;;9.47;;
20623;SDS011;10471;42.736;23.346;2022-12-10T08:56:33;17.53;;;10.43;;
20623;SDS011;10471;42.736;23.346;2022-12-10T08:58:58;17.57;;;9.67;;
20623;SDS011;10471;42.736;23.346;2022-12-10T09:01:24;13.13;;;9.00;;
20623;SDS011;10471;42.736;23.346;2022-12-10T09:03:49;14.57;;;8.13;;
20623;SDS011;10471;42.736;23.346;2022-12-10T09:06:16;13.63;;;7.67;;
20623;SDS011;10471;42.736;23.346;2022-12-10T09:08:43;14.07;;;9.80;;
20623;SDS011;10471;42.736;23.346;2022-12-10T09:11:11;15.40;;;8.27;;
20623;SDS011;10471;42.736;23.346;2022-12-10T09:13:40;18.57;;;9.10;;
20623;SDS011;10471;42.736;23.346;2022-12-10T09:16:05;13.33;;;8.53;;
20623;SDS011;10471;42.736;23.346;2022-12-10T09:18:31;15.73;;;9.90;;
20623;SDS011;10471;42.736;23.346;2022-12-10T09:20:56;11.27;;;6.93;;
20623;SDS011;10471;42.736;23.346;2022-12-10T09:23:22;14.60;;;7.80;;
20623;SDS011;10471;42.736;23.346;2022-12-10T09:25:48;13.70;;;7.27;;
20623;SDS011;10471;42.736;23.346;2022-12-10T09:28:13;14.67;;;7.07;;
20623;SDS011;10471;42.736;23.346;2022-12-10T09:30:38;15.27;;;7.57;;
20623;SDS011;10471;42.736;23.346;2022-12-10T09:33:04;12.30;;;7.13;;
20623;SDS011;10471;42.736;23.346;2022-12-10T09:35:29;19.13;;;9.17;;
20623;SDS011;10471;42.736;23.346;2022-12-10T09:37:55;15.67;;;8.37;;
20623;SDS011;10471;42.736;23.346;2022-12-10T09:40:44;15.73;;;8.77;;
20623;SDS011;10471;42.736;23.346;2022-12-10T09:48:41;15.90;;;8.97;;
20623;SDS011;10471;42.736;23.346;2022-12-10T09:51:19;17.00;;;9.10;;
20623;SDS011;10471;42.736;23.346;2022-12-10T09:53:45;10.77;;;7.20;;
20623;SDS011;10471;42.736;23.346;2022-12-10T09:56:23;10.53;;;7.30;;
20623;SDS011;10471;42.736;23.346;2022-12-10T09:58:52;11.37;;;7.30;;
20623;SDS011;10471;42.736;23.346;2022-12-10T10:01:19;13.20;;;7.43;;
20623;SDS011;10471;42.736;23.346;2022-12-10T10:03:49;26.63;;;16.60;;
20623;SDS011;10471;42.736;23.346;2022-12-10T10:06:16;9.23;;;5.80;;
20623;SDS011;10471;42.736;23.346;2022-12-10T10:11:23;10.23;;;5.63;;
20623;SDS011;10471;42.736;23.346;2022-12-10T10:13:53;8.97;;;5.83;;
20623;SDS011;10471;42.736;23.346;2022-12-10T10:16:41;10.40;;;5.93;;
20623;SDS011;10471;42.736;23.346;2022-12-10T10:19:15;12.97;;;5.90;;
20623;SDS011;10471;42.736;23.346;2022-12-10T10:21:50;9.77;;;5.57;;
20623;SDS011;10471;42.736;23.346;2022-12-10T10:24:17;10.60;;;5.27;;
20623;SDS011;10471;42.736;23.346;2022-12-10T10:26:45;12.03;;;5.23;;
20623;SDS011;10471;42.736;23.346;2022-12-10T10:29:12;10.07;;;5.70;;
20623;SDS011;10471;42.736;23.346;2022-12-10T10:31:41;10.90;;;5.50;;
20623;SDS011;10471;42.736;23.346;2022-12-10T10:34:16;11.73;;;5.50;;
20623;SDS011;10471;42.736;23.346;2022-12-10T10:36:45;9.40;;;5.73;;
20623;SDS011;10471;42.736;23.346;2022-12-10T10:41:47;7.63;;;5.43;;
20623;SDS011;10471;42.736;23.346;2022-12-10T10:44:17;11.77;;;5.50;;
20623;SDS011;10471;42.736;23.346;2022-12-10T10:46:46;8.43;;;5.57;;
20623;SDS011;10471;42.736;23.346;2022-12-10T10:51:44;12.67;;;6.20;;
20623;SDS011;10471;42.736;23.346;2022-12-10T10:54:17;11.10;;;5.80;;
20623;SDS011;10471;42.736;23.346;2022-12-10T10:57:01;14.37;;;5.70;;
20623;SDS011;10471;42.736;23.346;2022-12-10T10:59:30;12.90;;;5.90;;
20623;SDS011;10471;42.736;23.346;2022-12-10T11:02:01;10.90;;;5.73;;
20623;SDS011;10471;42.736;23.346;2022-12-10T11:04:38;9.37;;;5.20;;
20623;SDS011;10471;42.736;23.346;2022-12-10T11:07:33;10.43;;;5.67;;
20623;SDS011;10471;42.736;23.346;2022-12-10T11:09:56;11.13;;;5.33;;
20623;SDS011;10471;42.736;23.346;2022-12-10T11:14:53;13.40;;;6.80;;
20623;SDS011;10471;42.736;23.346;2022-12-10T11:17:21;9.60;;;5.83;;
20623;SDS011;10471;42.736;23.346;2022-12-10T11:22:29;10.17;;;6.63;;
20623;SDS011;10471;42.736;23.346;2022-12-10T11:24:56;49.27;;;30.07;;
20623;SDS011;10471;42.736;23.346;2022-12-10T11:30:27;20.27;;;7.93;;
20623;SDS011;10471;42.736;23.346;2022-12-10T11:33:05;14.83;;;7.23;;
20623;SDS011;10471;42.736;23.346;2022-12-10T12:05:31;12.07;;;6.27;;
20623;SDS011;10471;42.736;23.346;2022-12-10T12:14:29;13.57;;;7.73;;
20623;SDS011;10471;42.736;23.346;2022-12-10T12:19:45;11.77;;;8.47;;
20623;SDS011;10471;42.736;23.346;2022-12-10T12:22:26;19.90;;;8.90;;
20623;SDS011;10471;42.736;23.346;2022-12-10T12:25:02;14.93;;;8.60;;
20623;SDS011;10471;42.736;23.346;2022-12-10T12:30:16;15.33;;;12.53;;
20623;SDS011;10471;42.736;23.346;2022-12-10T12:40:48;13.37;;;7.63;;
20623;SDS011;10471;42.736;23.346;2022-12-10T12:43:22;21.40;;;9.03;;
20623;SDS011;10471;42.736;23.346;2022-12-10T12:45:53;20.97;;;12.57;;
20623;SDS011;10471;42.736;23.346;2022-12-10T12:48:32;16.67;;;9.90;;
20623;SDS011;10471;42.736;23.346;2022-12-10T12:53:51;35.40;;;9.30;;
20623;SDS011;10471;42.736;23.346;2022-12-10T12:56:31;12.20;;;6.80;;
20623;SDS011;10471;42.736;23.346;2022-12-10T13:01:51;35.70;;;9.40;;
20623;SDS011;10471;42.736;23.346;2022-12-10T13:04:23;46.27;;;9.43;;
20623;SDS011;10471;42.736;23.346;2022-12-10T13:12:31;98.87;;;41.27;;
20623;SDS011;10471;42.736;23.346;2022-12-10T13:17:39;43.60;;;10.33;;
20623;SDS011;10471;42.736;23.346;2022-12-10T13:20:34;26.33;;;7.77;;
20623;SDS011;10471;42.736;23.346;2022-12-10T13:23:27;13.87;;;6.50;;
20623;SDS011;10471;42.736;23.346;2022-12-10T13:28:25;15.83;;;7.33;;
20623;SDS011;10471;42.736;23.346;2022-12-10T13:44:49;23.87;;;14.13;;
20623;SDS011;10471;42.736;23.346;2022-12-10T13:50:20;18.60;;;9.90;;
20623;SDS011;10471;42.736;23.346;2022-12-10T13:53:24;18.10;;;9.77;;
20623;SDS011;10471;42.736;23.346;2022-12-10T13:56:11;13.70;;;8.07;;
20623;SDS011;10471;42.736;23.346;2022-12-10T14:01:37;14.83;;;8.30;;
20623;SDS011;10471;42.736;23.346;2022-12-10T14:06:35;15.20;;;9.27;;
20623;SDS011;10471;42.736;23.346;2022-12-10T14:09:11;17.53;;;10.27;;
20623;SDS011;10471;42.736;23.346;2022-12-10T14:11:37;18.80;;;8.87;;
20623;SDS011;10471;42.736;23.346;2022-12-10T14:14:29;23.80;;;12.43;;
20623;SDS011;10471;42.736;23.346;2022-12-10T14:17:02;24.23;;;12.27;;
20623;SDS011;10471;42.736;23.346;2022-12-10T14:19:29;27.80;;;13.10;;
20623;SDS011;10471;42.736;23.346;2022-12-10T14:21:55;21.83;;;12.27;;
20623;SDS011;10471;42.736;23.346;2022-12-10T14:24:28;23.43;;;15.03;;
20623;SDS011;10471;42.736;23.346;2022-12-10T14:27:02;34.53;;;24.00;;
20623;SDS011;10471;42.736;23.346;2022-12-10T14:29:36;36.90;;;26.73;;
20623;SDS011;10471;42.736;23.346;2022-12-10T14:32:02;42.80;;;32.10;;
20623;SDS011;10471;42.736;23.346;2022-12-10T14:34:28;40.87;;;30.37;;
20623;SDS011;10471;42.736;23.346;2022-12-10T14:36:54;59.30;;;31.90;;
20623;SDS011;10471;42.736;23.346;2022-12-10T14:39:26;42.67;;;23.47;;
20623;SDS011;10471;42.736;23.346;2022-12-10T14:41:55;35.37;;;22.47;;
20623;SDS011;10471;42.736;23.346;2022-12-10T14:44:24;34.13;;;21.80;;
20623;SDS011;10471;42.736;23.346;2022-12-10T14:46:50;32.23;;;19.70;;
20623;SDS011;10471;42.736;23.346;2022-12-10T14:49:17;36.33;;;19.50;;
20623;SDS011;10471;42.736;23.346;2022-12-10T14:51:45;39.33;;;21.30;;
20623;SDS011;10471;42.736;23.346;2022-12-10T14:56:58;31.93;;;19.00;;
20623;SDS011;10471;42.736;23.346;2022-12-10T14:59:41;27.60;;;17.20;;
20623;SDS011;10471;42.736;23.346;2022-12-10T15:02:28;26.93;;;14.50;;
20623;SDS011;10471;42.736;23.346;2022-12-10T15:04:57;29.60;;;14.73;;
20623;SDS011;10471;42.736;23.346;2022-12-10T15:07:23;27.97;;;16.97;;
20623;SDS011;10471;42.736;23.346;2022-12-10T15:09:52;26.20;;;14.60;;
20623;SDS011;10471;42.736;23.346;2022-12-10T15:15:12;17.53;;;8.63;;
20623;SDS011;10471;42.736;23.346;2022-12-10T15:17:41;17.90;;;9.53;;
20623;SDS011;10471;42.736;23.346;2022-12-10T15:20:19;14.20;;;8.37;;
20623;SDS011;10471;42.736;23.346;2022-12-10T15:22:45;18.53;;;8.87;;
20623;SDS011;10471;42.736;23.346;2022-12-10T15:25:13;16.23;;;9.67;;
20623;SDS011;10471;42.736;23.346;2022-12-10T15:27:55;16.03;;;11.03;;
20623;SDS011;10471;42.736;23.346;2022-12-10T15:30:23;21.60;;;13.13;;
20623;SDS011;10471;42.736;23.346;2022-12-10T15:33:00;16.10;;;9.73;;
20623;SDS011;10471;42.736;23.346;2022-12-10T15:35:25;15.60;;;7.73;;
20623;SDS011;10471;42.736;23.346;2022-12-10T15:37:51;21.53;;;10.80;;
20623;SDS011;10471;42.736;23.346;2022-12-10T15:40:25;16.57;;;10.00;;
20623;SDS011;10471;42.736;23.346;2022-12-10T15:43:11;18.07;;;10.40;;
20623;SDS011;10471;42.736;23.346;2022-12-10T15:45:49;21.30;;;10.03;;
20623;SDS011;10471;42.736;23.346;2022-12-10T15:48:15;17.07;;;8.53;;
20623;SDS011;10471;42.736;23.346;2022-12-10T15:50:41;15.33;;;8.60;;
20623;SDS011;10471;42.736;23.346;2022-12-10T15:53:10;16.47;;;8.83;;
20623;SDS011;10471;42.736;23.346;2022-12-10T15:55:37;20.33;;;9.53;;
20623;SDS011;10471;42.736;23.346;2022-12-10T15:58:07;16.37;;;7.70;;
20623;SDS011;10471;42.736;23.346;2022-12-10T16:00:35;18.67;;;9.13;;
20623;SDS011;10471;42.736;23.346;2022-12-10T16:03:02;16.33;;;8.23;;
20623;SDS011;10471;42.736;23.346;2022-12-10T16:05:34;14.00;;;8.50;;
20623;SDS011;10471;42.736;23.346;2022-12-10T16:08:01;13.20;;;8.07;;
20623;SDS011;10471;42.736;23.346;2022-12-10T16:10:37;18.53;;;7.60;;
20623;SDS011;10471;42.736;23.346;2022-12-10T16:13:04;13.20;;;7.43;;
20623;SDS011;10471;42.736;23.346;2022-12-10T16:15:36;18.67;;;9.50;;
20623;SDS011;10471;42.736;23.346;2022-12-10T16:18:08;18.63;;;9.30;;
20623;SDS011;10471;42.736;23.346;2022-12-10T16:20:35;16.10;;;8.60;;
20623;SDS011;10471;42.736;23.346;2022-12-10T16:23:00;14.80;;;8.77;;
20623;SDS011;10471;42.736;23.346;2022-12-10T16:25:27;18.70;;;8.23;;
20623;SDS011;10471;42.736;23.346;2022-12-10T16:27:54;19.50;;;8.77;;
20623;SDS011;10471;42.736;23.346;2022-12-10T16:30:25;15.10;;;8.27;;
20623;SDS011;10471;42.736;23.346;2022-12-10T16:32:56;17.53;;;8.10;;
20623;SDS011;10471;42.736;23.346;2022-12-10T16:35:22;16.47;;;8.47;;
20623;SDS011;10471;42.736;23.346;2022-12-10T16:37:47;13.80;;;8.40;;
20623;SDS011;10471;42.736;23.346;2022-12-10T16:40:19;14.80;;;7.97;;
20623;SDS011;10471;42.736;23.346;2022-12-10T16:42:47;20.47;;;9.00;;
20623;SDS011;10471;42.736;23.346;2022-12-10T16:45:14;18.10;;;9.93;;
20623;SDS011;10471;42.736;23.346;2022-12-10T16:47:41;23.60;;;13.30;;